メインページ
METAR-TAF:

METAR-TAF

空港 :

セロ・モレノ国際空港

アントファガスタ, チリ

緯度: 23-26S, 経度: 070-26W, 海抜: 135m

現時点の気象観測

当レポートは31分前の06:00(UTC)に作成
南西の風 6kt
気温 15°C
湿度 72%
気圧 1017 hPa
視程10km以上
高度1500ftの千切れ雲あり
高度1700ftの曇り

METAR: SCFA 200600Z 22006KT 9999 BKN015 OVC017 15/10 Q1017 NOSIG

時間: 03:31 (06:31 UTC)

予報

当レポートは2時間17分前の04:14(UTC)に作成
予報は20日の 06時(UTC)から 21日の 06時(UTC)まで有効
北/北西の風 4kt
視程10km以上
高度2500ftの曇り
20日の 10時(UTC)から 20日の 12時(UTC)まで徐々に
の風 4kt
20日の 15時(UTC)から 20日の 17時(UTC)まで徐々に
南/南西の風 16kt
高度3000ftの雲はほとんどない
20日の 21時(UTC)から 20日の 23時(UTC)まで徐々に
高度1500ftの雲は散在している
高度2000ftの千切れ雲あり
21日の 02時(UTC)から 21日の 04時(UTC)まで徐々に
南/南西の風 4kt
高度2200ftの曇り

TAF: SCFA 200414Z 2006/2106 34004KT 9999 OVC025 TN15/2006Z TX17/2017Z BECMG 2010/2012 19004KT BECMG 2015/2017 20016KT FEW030 BECMG 2021/2023 SCT015 BKN020 BECMG 2102/2104 20004KT OVC022

4,000以上の空港の気象観測と天気予報(METAR報とTAF報)

利用可能な観測所は地図上に黄色い丸と赤い丸で示す。

丸の上にカーソルを重ねると観測所名を参照できる。

次にクリックすると気象観測と天気予報を参照できる。

マップの切り替え:黒色「×」印の緑ボタンをクリックして拡大、「-」印の緑ボタンをクリックして縮小、緑色の三角印をクリックして隣りの地図に切り替え


METAR-TAF: